Time;durP1;ratioP1;P1;durP2;ratioP2;P2;SDS_P1;SDS_P2;PMS_P1;PMS_P2;Temp;Humidity;BMP_temperature;BMP_pressure;BME280_temperature;BME280_humidity;BME280_pressure;Samples;Min_cycle;Max_cycle;Signal;HPM_P1;HPM_P2
2023/09/04 00:03:25;;;;;;;0.20;0.20;;;23.40;82.70;;;;;;6212767;23;20171;-90
2023/09/04 00:15:23;;;;;;;;;;;;;;;;;;;;;
2023/09/04 00:18:00;;;;;;;1.23;0.43;;;23.20;82.60;;;;;;6287820;22;20165;-88
2023/09/04 00:20:40;;;;;;;0.43;0.40;;;23.10;82.70;;;;;;6306042;22;20161;-90
2023/09/04 00:48:27;;;;;;;0.10;0.10;;;23.10;84.20;;;;;;6212288;23;20270;-89
2023/09/04 00:51:09;;;;;;;0.30;0.30;;;23.10;83.80;;;;;;6211855;23;20182;-90
2023/09/04 00:54:21;;;;;;;0.20;0.20;;;23.10;83.70;;;;;;6267745;22;20161;-88
2023/09/04 01:00:31;;;;;;;0.30;0.30;;;23.10;84.20;;;;;;6306307;22;20218;-90
2023/09/04 01:09:14;;;;;;;1.08;0.65;;;23.00;85.80;;;;;;6264757;22;20306;-89
2023/09/04 01:12:27;;;;;;;0.20;0.20;;;22.90;85.40;;;;;;6295704;22;20173;-90
2023/09/04 01:15:24;;;;;;;0.25;0.25;;;22.90;85.00;;;;;;6306502;22;20172;-88
2023/09/04 01:17:55;;;;;;;0.60;0.30;;;22.90;84.70;;;;;;6299164;22;20199;-92
2023/09/04 01:20:45;;;;;;;0.20;0.20;;;22.90;84.50;;;;;;6306901;22;20173;-90
2023/09/04 01:23:33;;;;;;;0.20;0.20;;;23.00;84.20;;;;;;6308047;22;20176;-88
2023/09/04 01:26:22;;;;;;;0.65;0.40;;;23.00;84.10;;;;;;6307520;22;20215;-89
2023/09/04 01:29:24;;;;;;;0.20;0.20;;;23.00;84.10;;;;;;6308269;22;20188;-88
2023/09/04 01:32:14;;;;;;;0.30;0.30;;;23.00;83.90;;;;;;6308049;22;20234;-88
2023/09/04 01:34:50;;;;;;;0.20;0.20;;;23.00;83.70;;;;;;6308348;22;20181;-90
2023/09/04 01:37:23;;;;;;;0.20;0.20;;;23.00;83.40;;;;;;6306815;22;20223;-88
2023/09/04 01:40:09;;;;;;;1.27;0.85;;;23.00;83.50;;;;;;6309113;22;20165;-89
2023/09/04 01:42:49;;;;;;;0.20;0.20;;;23.10;83.50;;;;;;6307471;22;20169;-90
2023/09/04 01:45:26;;;;;;;0.20;0.20;;;23.10;83.20;;;;;;6308057;22;20555;-90
2023/09/04 01:47:58;;;;;;;0.25;0.25;;;23.00;83.10;;;;;;6307676;22;20164;-89
2023/09/04 01:50:41;;;;;;;0.20;0.20;;;23.10;83.30;;;;;;6308163;22;20191;-88
2023/09/04 01:53:19;;;;;;;10.30;1.05;;;23.10;83.30;;;;;;6306302;22;20244;-91
2023/09/04 01:55:56;;;;;;;0.25;0.25;;;23.10;83.20;;;;;;6307809;22;20158;-88
2023/09/04 01:58:38;;;;;;;0.20;0.20;;;23.10;82.90;;;;;;6306779;22;20168;-90
2023/09/04 02:01:26;;;;;;;0.20;0.20;;;23.10;83.00;;;;;;6307384;22;20613;-89
2023/09/04 02:04:08;;;;;;;0.20;0.20;;;23.10;82.70;;;;;;6308086;22;20232;-90
2023/09/04 02:07:06;;;;;;;0.17;0.17;;;23.10;82.60;;;;;;6287458;22;20224;-89
2023/09/04 02:10:14;;;;;;;0.20;0.20;;;23.10;82.30;;;;;;6307978;22;20244;-89
2023/09/04 02:13:22;;;;;;;0.20;0.20;;;23.20;82.20;;;;;;6307940;22;20606;-90
2023/09/04 02:16:51;;;;;;;0.10;0.10;;;23.20;82.00;;;;;;6285570;22;20504;-89
2023/09/04 02:19:48;;;;;;;0.20;0.20;;;23.20;81.90;;;;;;6304289;22;20265;-89
2023/09/04 02:22:33;;;;;;;0.20;0.20;;;23.20;82.00;;;;;;6305305;22;20765;-89
2023/09/04 02:25:45;;;;;;;0.20;0.20;;;23.20;81.90;;;;;;6308050;22;20545;-88
2023/09/04 02:31:07;;;;;;;0.20;0.20;;;23.20;82.20;;;;;;6337362;22;20188;-89
2023/09/04 02:34:15;;;;;;;0.20;0.20;;;23.20;82.50;;;;;;6338474;22;20157;-90
2023/09/04 02:37:08;;;;;;;0.30;0.30;;;23.20;83.30;;;;;;6311686;22;20224;-89
2023/09/04 02:40:10;;;;;;;0.20;0.20;;;23.20;83.30;;;;;;6332407;22;20165;-87
2023/09/04 02:43:12;;;;;;;0.20;0.20;;;23.20;83.00;;;;;;6355447;22;20164;-88
2023/09/04 02:45:48;;;;;;;0.20;0.20;;;23.10;83.00;;;;;;6358026;22;20224;-89
2023/09/04 02:48:17;;;;;;;0.40;0.30;;;23.10;82.60;;;;;;6359752;22;20168;-89
2023/09/04 02:50:52;;;;;;;0.20;0.20;;;23.10;82.90;;;;;;6350680;22;20165;-88
2023/09/04 02:53:46;;;;;;;0.90;0.50;;;23.10;82.70;;;;;;6356832;22;20160;-88
2023/09/04 02:56:30;;;;;;;0.20;0.20;;;23.10;82.60;;;;;;6356658;22;20172;-89
2023/09/04 02:59:09;;;;;;;0.30;0.30;;;23.10;82.50;;;;;;6351619;22;20164;-88
2023/09/04 03:01:42;;;;;;;0.20;0.20;;;23.00;82.40;;;;;;6338856;22;20808;-89
2023/09/04 03:04:25;;;;;;;0.30;0.30;;;23.00;82.50;;;;;;6338140;22;20620;-89
2023/09/04 03:07:03;;;;;;;0.25;0.25;;;23.00;82.40;;;;;;6338906;22;20184;-90
2023/09/04 03:09:43;;;;;;;0.30;0.20;;;23.00;82.20;;;;;;6339483;22;20660;-90
2023/09/04 03:12:56;;;;;;;0.28;0.28;;;23.00;82.20;;;;;;6313031;22;20175;-89
2023/09/04 03:16:22;;;;;;;0.20;0.20;;;23.00;82.30;;;;;;6339138;22;20164;-90
2023/09/04 03:19:05;;;;;;;0.52;0.38;;;23.00;82.50;;;;;;6338951;22;20180;-89
2023/09/04 03:21:46;;;;;;;2.70;0.40;;;22.90;82.30;;;;;;6339099;22;20168;-89
2023/09/04 03:24:35;;;;;;;0.40;0.40;;;22.90;82.40;;;;;;6338103;22;20157;-90
2023/09/04 03:27:17;;;;;;;0.20;0.20;;;22.90;82.30;;;;;;6336920;22;20519;-90
2023/09/04 03:29:54;;;;;;;0.20;0.20;;;22.80;82.20;;;;;;6338123;22;20211;-90
2023/09/04 03:32:48;;;;;;;0.70;0.52;;;22.80;82.30;;;;;;6337675;22;20606;-86
2023/09/04 03:35:20;;;;;;;0.43;0.40;;;22.80;82.30;;;;;;6336702;22;20164;-87
2023/09/04 03:38:11;;;;;;;0.40;0.30;;;22.80;82.60;;;;;;6336845;22;20164;-90
2023/09/04 03:40:51;;;;;;;0.20;0.20;;;22.80;82.30;;;;;;6338618;22;20156;-90
2023/09/04 03:43:35;;;;;;;0.77;0.60;;;22.80;82.50;;;;;;6338084;22;20164;-88
2023/09/04 03:46:23;;;;;;;0.28;0.28;;;22.70;82.60;;;;;;6338100;22;20642;-90
2023/09/04 03:49:01;;;;;;;1.10;0.75;;;22.70;82.60;;;;;;6338152;22;20160;-90
2023/09/04 03:51:54;;;;;;;0.20;0.20;;;22.70;82.80;;;;;;6336605;22;20171;-88
2023/09/04 03:54:39;;;;;;;0.30;0.30;;;22.70;82.70;;;;;;6337302;22;20161;-87
2023/09/04 03:57:22;;;;;;;0.20;0.20;;;22.70;82.60;;;;;;6337057;22;20238;-90
2023/09/04 04:00:20;;;;;;;0.20;0.20;;;22.70;82.50;;;;;;6328508;22;20612;-87
2023/09/04 04:03:04;;;;;;;0.20;0.20;;;22.70;82.30;;;;;;6337286;22;20167;-88
2023/09/04 04:06:03;;;;;;;0.85;0.55;;;22.70;82.00;;;;;;6336878;22;20160;-88
2023/09/04 04:08:37;;;;;;;0.17;0.17;;;22.70;82.00;;;;;;6336357;22;20195;-90
2023/09/04 04:11:10;;;;;;;0.30;0.30;;;22.70;82.00;;;;;;6337329;22;20168;-92
2023/09/04 04:13:41;;;;;;;0.20;0.20;;;22.70;82.20;;;;;;6336841;22;20175;-89
2023/09/04 04:16:12;;;;;;;0.20;0.20;;;22.70;82.00;;;;;;6335972;22;20953;-90
2023/09/04 04:18:42;;;;;;;0.20;0.20;;;22.70;82.10;;;;;;6337182;22;20190;-88
2023/09/04 04:21:12;;;;;;;0.22;0.22;;;22.70;82.00;;;;;;6336239;22;20230;-90
2023/09/04 04:23:44;;;;;;;0.47;0.47;;;22.70;81.90;;;;;;6336403;22;20161;-90
2023/09/04 04:26:14;;;;;;;0.28;0.28;;;22.70;82.70;;;;;;6336028;22;20260;-89
2023/09/04 04:28:43;;;;;;;0.20;0.20;;;22.70;82.00;;;;;;6338749;22;20215;-94
2023/09/04 04:31:11;;;;;;;0.40;0.40;;;22.70;81.70;;;;;;6340119;22;20196;-92
2023/09/04 04:33:40;;;;;;;0.60;0.60;;;22.70;81.70;;;;;;6338402;22;20247;-90
2023/09/04 04:36:17;;;;;;;0.40;0.40;;;22.70;81.90;;;;;;6337358;22;20230;-94
2023/09/04 04:38:49;;;;;;;0.38;0.38;;;22.70;81.90;;;;;;6338381;22;20172;-93
2023/09/04 04:41:35;;;;;;;0.20;0.20;;;22.70;81.60;;;;;;6338040;22;20165;-94
2023/09/04 04:47:46;;;;;;;0.60;0.60;;;22.80;81.90;;;;;;6324168;22;20188;-85
2023/09/04 04:50:14;;;;;;;1.38;0.25;;;22.80;81.60;;;;;;6305183;22;20373;-86
2023/09/04 04:52:46;;;;;;;0.20;0.20;;;22.80;81.60;;;;;;6334161;22;20251;-85
2023/09/04 04:55:15;;;;;;;0.40;0.30;;;22.80;81.60;;;;;;6336747;22;20618;-85
2023/09/04 04:57:43;;;;;;;0.47;0.40;;;22.80;81.60;;;;;;6336313;22;20168;-85
2023/09/04 05:00:13;;;;;;;0.32;0.32;;;22.80;81.40;;;;;;6333877;22;20176;-88
2023/09/04 05:02:41;;;;;;;0.20;0.20;;;22.80;81.20;;;;;;6336784;22;20168;-86
2023/09/04 05:05:10;;;;;;;0.38;0.38;;;22.80;81.10;;;;;;6335226;22;20218;-84
2023/09/04 05:07:41;;;;;;;0.57;0.57;;;22.80;81.10;;;;;;6336768;22;20564;-89
2023/09/04 05:10:11;;;;;;;0.20;0.20;;;22.80;81.00;;;;;;6338715;22;20160;-86
2023/09/04 05:12:40;;;;;;;0.30;0.30;;;22.90;81.00;;;;;;6339258;22;20275;-86
2023/09/04 05:15:09;;;;;;;0.20;0.20;;;22.90;80.90;;;;;;6336769;22;20168;-86
2023/09/04 05:17:47;;;;;;;1.17;0.65;;;22.90;80.70;;;;;;6312432;22;20172;-91
2023/09/04 06:18:21;;;;;;;0.45;0.43;;;23.10;79.30;;;;;;6337176;22;20222;-86
2023/09/04 06:20:50;;;;;;;3.95;0.80;;;23.10;79.30;;;;;;6336666;22;20156;-84
2023/09/04 06:23:19;;;;;;;0.55;0.55;;;23.10;79.20;;;;;;6337623;22;20413;-87
2023/09/04 06:25:47;;;;;;;0.20;0.20;;;23.10;79.20;;;;;;6343771;22;20178;-94
2023/09/04 06:28:16;;;;;;;0.77;0.50;;;23.10;79.20;;;;;;6342683;22;20245;-92
2023/09/04 06:30:45;;;;;;;0.40;0.40;;;23.20;79.40;;;;;;6340372;22;20192;-88
2023/09/04 06:33:14;;;;;;;0.85;0.65;;;23.20;79.40;;;;;;6342356;22;20184;-94
2023/09/04 06:35:44;;;;;;;0.40;0.40;;;23.10;80.00;;;;;;6348074;22;20168;-92
2023/09/04 06:38:14;;;;;;;3.08;1.05;;;23.20;79.20;;;;;;6347341;22;20635;-94
2023/09/04 06:43:18;;;;;;;0.22;0.22;;;23.20;79.20;;;;;;6296981;22;20922;-94
2023/09/04 06:45:47;;;;;;;2.10;0.40;;;23.30;79.10;;;;;;6303440;22;20158;-92
2023/09/04 06:53:29;;;;;;;0.35;0.30;;;23.40;79.90;;;;;;6230205;23;20182;-93
2023/09/04 06:56:03;;;;;;;1.00;0.68;;;23.40;78.80;;;;;;6229196;23;20502;-93
2023/09/04 06:58:37;;;;;;;0.30;0.30;;;23.30;78.60;;;;;;6290667;22;20252;-94
2023/09/04 07:01:15;;;;;;;0.40;0.40;;;23.40;78.70;;;;;;6329169;22;20154;-94
2023/09/04 07:03:44;;;;;;;0.57;0.55;;;23.40;78.70;;;;;;6322387;22;20603;-91
2023/09/04 07:06:12;;;;;;;0.57;0.30;;;23.50;78.70;;;;;;6324184;22;20223;-93
2023/09/04 07:08:46;;;;;;;0.50;0.50;;;23.60;78.60;;;;;;6326033;22;20269;-94
2023/09/04 07:11:16;;;;;;;0.30;0.30;;;23.70;78.70;;;;;;6315654;22;20153;-91
2023/09/04 07:13:45;;;;;;;0.40;0.40;;;23.70;78.60;;;;;;6305471;22;20196;-89
2023/09/04 07:16:14;;;;;;;0.75;0.52;;;23.80;78.40;;;;;;6306592;22;20876;-91
2023/09/04 07:19:02;;;;;;;0.30;0.30;;;23.80;78.30;;;;;;6306869;22;20545;-89
2023/09/04 07:21:30;;;;;;;0.40;0.40;;;23.90;78.00;;;;;;6311503;22;20165;-89
2023/09/04 07:24:01;;;;;;;1.88;0.43;;;23.90;78.00;;;;;;6320220;22;20149;-89
2023/09/04 07:26:34;;;;;;;0.52;0.52;;;23.90;77.80;;;;;;6312391;22;20165;-92
2023/09/04 07:29:03;;;;;;;0.20;0.20;;;23.90;77.50;;;;;;6314572;22;20189;-94
2023/09/04 07:31:32;;;;;;;0.55;0.55;;;23.90;77.50;;;;;;6310992;22;20630;-92
2023/09/04 07:34:02;;;;;;;0.35;0.35;;;24.00;77.50;;;;;;6318575;22;20161;-93
2023/09/04 07:36:39;;;;;;;0.20;0.20;;;24.00;77.50;;;;;;6319006;22;20180;-94
2023/09/04 07:39:15;;;;;;;0.40;0.40;;;24.10;77.40;;;;;;6312161;22;20204;-92
2023/09/04 07:41:44;;;;;;;0.30;0.30;;;24.10;77.10;;;;;;6315265;22;20161;-91
2023/09/04 07:44:12;;;;;;;0.32;0.28;;;24.10;76.50;;;;;;6307621;22;20180;-92
2023/09/04 07:46:41;;;;;;;0.98;0.80;;;24.10;76.10;;;;;;6279234;22;20165;-90
2023/09/04 07:49:10;;;;;;;1.35;1.25;;;24.10;76.00;;;;;;6307111;22;20197;-91
2023/09/04 07:51:39;;;;;;;0.40;0.40;;;24.20;75.80;;;;;;6309095;22;20161;-93
2023/09/04 07:54:13;;;;;;;0.20;0.20;;;24.20;75.80;;;;;;6307530;22;20251;-90
2023/09/04 08:18:49;;;;;;;1.65;0.40;;;24.60;74.50;;;;;;6245328;22;20198;-92
2023/09/04 08:21:28;;;;;;;0.68;0.60;;;24.70;74.50;;;;;;6245311;23;20240;-93
2023/09/04 08:23:59;;;;;;;0.30;0.30;;;24.70;74.20;;;;;;6239614;23;20539;-92
2023/09/04 08:26:31;;;;;;;0.85;0.52;;;24.70;74.00;;;;;;6245222;23;20225;-89
2023/09/04 08:29:00;;;;;;;0.73;0.30;;;24.70;72.80;;;;;;6245666;23;20250;-93
2023/09/04 08:32:19;;;;;;;0.30;0.30;;;24.70;72.50;;;;;;6246161;23;20200;-95
2023/09/04 08:34:49;;;;;;;2.70;0.68;;;24.80;72.90;;;;;;6118633;23;20243;-86
2023/09/04 08:37:17;;;;;;;0.20;0.20;;;24.90;73.20;;;;;;6245893;23;20163;-90
2023/09/04 08:40:02;;;;;;;0.22;0.22;;;24.90;72.80;;;;;;6251087;23;20166;-95
2023/09/04 08:42:31;;;;;;;0.98;0.73;;;25.00;72.90;;;;;;6248622;22;20170;-92
2023/09/04 08:45:02;;;;;;;0.30;0.30;;;25.00;72.20;;;;;;6246010;23;20197;-85
2023/09/04 08:47:36;;;;;;;0.95;0.30;;;25.00;72.20;;;;;;6248586;23;20201;-92
2023/09/04 08:50:09;;;;;;;0.95;0.30;;;25.10;72.50;;;;;;6247513;23;20631;-91
2023/09/04 08:52:39;;;;;;;1.48;0.82;;;25.20;72.40;;;;;;6249208;23;20173;-91
2023/09/04 08:55:08;;;;;;;0.40;0.40;;;25.20;72.00;;;;;;6248571;23;20197;-93
2023/09/04 08:57:37;;;;;;;7.97;1.27;;;25.20;71.40;;;;;;6248375;23;20194;-94
2023/09/04 09:00:08;;;;;;;0.60;0.60;;;25.20;71.50;;;;;;6249602;23;20166;-92
2023/09/04 09:02:40;;;;;;;0.20;0.20;;;25.30;71.30;;;;;;6247980;23;20245;-89
2023/09/04 09:05:12;;;;;;;0.20;0.20;;;25.30;71.30;;;;;;6246596;23;20193;-93
2023/09/04 09:07:43;;;;;;;0.38;0.38;;;25.40;71.20;;;;;;6247760;23;20232;-90
2023/09/04 09:16:28;;;;;;;0.35;0.30;;;25.60;71.00;;;;;;6244166;22;20194;-86
2023/09/04 09:19:03;;;;;;;0.47;0.47;;;25.70;70.30;;;;;;6245239;23;20200;-90
2023/09/04 09:21:34;;;;;;;0.50;0.30;;;25.70;69.00;;;;;;6246575;23;20165;-89
2023/09/04 09:24:19;;;;;;;0.30;0.30;;;25.70;69.30;;;;;;6245374;22;20162;-91
2023/09/04 09:26:51;;;;;;;0.30;0.30;;;25.80;69.10;;;;;;6246177;23;20155;-90
2023/09/04 09:29:25;;;;;;;0.38;0.38;;;25.80;69.00;;;;;;6244678;23;20197;-90
2023/09/04 09:31:54;;;;;;;0.35;0.30;;;26.00;69.30;;;;;;6245111;23;20169;-91
2023/09/04 09:34:25;;;;;;;0.30;0.30;;;26.10;69.50;;;;;;6244521;23;20274;-87
2023/09/04 09:56:30;;;;;;;0.60;0.43;;;26.50;68.00;;;;;;6252549;22;20196;-94
2023/09/04 10:05:05;;;;;;;0.45;0.30;;;26.70;67.40;;;;;;6321243;22;20287;-92
2023/09/04 10:10:05;;;;;;;1.30;0.63;;;26.60;66.70;;;;;;6352567;22;20188;-92
2023/09/04 10:12:41;;;;;;;0.20;0.20;;;26.60;66.70;;;;;;6341644;22;20218;-89
2023/09/04 10:15:14;;;;;;;0.32;0.32;;;26.60;66.20;;;;;;6336681;22;20198;-88
2023/09/04 10:17:47;;;;;;;0.47;0.47;;;26.60;66.20;;;;;;6338115;22;20165;-89
2023/09/04 10:20:16;;;;;;;0.20;0.20;;;26.60;66.30;;;;;;6338325;22;20593;-89
2023/09/04 10:22:48;;;;;;;0.85;0.70;;;26.60;66.10;;;;;;6339334;22;20179;-90
2023/09/04 10:25:26;;;;;;;0.40;0.40;;;26.70;66.30;;;;;;6337655;22;20156;-93
2023/09/04 10:28:05;;;;;;;0.25;0.25;;;26.70;65.80;;;;;;6339770;22;20160;-88
2023/09/04 10:30:37;;;;;;;0.13;0.13;;;26.80;65.20;;;;;;6341649;22;20184;-86
2023/09/04 10:33:10;;;;;;;0.47;0.47;;;26.80;65.40;;;;;;6332527;22;20212;-95
2023/09/04 10:35:43;;;;;;;0.63;0.47;;;26.80;64.10;;;;;;6340857;22;20663;-93
2023/09/04 10:38:13;;;;;;;0.20;0.20;;;26.90;64.00;;;;;;6341980;22;20161;-93
2023/09/04 10:40:46;;;;;;;0.20;0.20;;;27.00;64.00;;;;;;6340965;22;20160;-93
2023/09/04 10:43:43;;;;;;;0.20;0.20;;;27.00;64.10;;;;;;6343654;22;20240;-95
2023/09/04 10:46:16;;;;;;;0.20;0.20;;;27.20;63.60;;;;;;6337585;22;20195;-87
2023/09/04 10:49:33;;;;;;;0.20;0.20;;;27.30;64.00;;;;;;6338515;22;20188;-95
2023/09/04 10:52:41;;;;;;;0.25;0.25;;;27.40;63.70;;;;;;6337855;22;20636;-94
2023/09/04 10:55:15;;;;;;;0.45;0.22;;;27.50;62.60;;;;;;6335816;22;20184;-86
2023/09/04 10:58:03;;;;;;;0.65;0.50;;;27.50;62.60;;;;;;6337944;22;20193;-92
2023/09/04 11:04:31;;;;;;;1.65;0.47;;;27.60;63.00;;;;;;6325931;22;20164;-95
2023/09/04 11:07:29;;;;;;;0.28;0.28;;;27.50;60.60;;;;;;6353570;22;20164;-93
2023/09/04 11:10:49;;;;;;;;;;;;;;;;;;;;;
2023/09/04 11:17:28;;;;;;;0.30;0.30;;;27.70;61.20;;;;;;6363585;22;20164;-92
2023/09/04 11:20:26;;;;;;;0.20;0.20;;;27.70;61.90;;;;;;6361855;22;20224;-90
2023/09/04 11:23:29;;;;;;;0.50;0.50;;;27.80;61.40;;;;;;6357679;22;20156;-90
2023/09/04 11:26:22;;;;;;;1.02;0.68;;;27.70;61.20;;;;;;6359555;22;20598;-89
2023/09/04 11:29:00;;;;;;;0.20;0.20;;;27.80;60.90;;;;;;6365039;22;20160;-95
2023/09/04 11:31:30;;;;;;;0.60;0.47;;;27.70;60.60;;;;;;6365339;22;20180;-88
2023/09/04 11:33:59;;;;;;;0.28;0.20;;;27.70;61.30;;;;;;6355395;22;20180;-88
2023/09/04 11:36:29;;;;;;;0.40;0.40;;;27.70;61.20;;;;;;6337500;22;20180;-89
2023/09/04 11:39:05;;;;;;;0.28;0.20;;;27.70;61.10;;;;;;6337235;22;20501;-88
2023/09/04 11:41:34;;;;;;;0.30;0.30;;;27.80;61.30;;;;;;6337695;22;20168;-88
2023/09/04 11:44:05;;;;;;;0.20;0.20;;;27.70;61.20;;;;;;6336015;22;20164;-86
2023/09/04 11:46:34;;;;;;;0.70;0.70;;;27.80;60.90;;;;;;6333987;22;20189;-88
2023/09/04 11:49:18;;;;;;;0.20;0.20;;;27.70;60.70;;;;;;6338327;22;20160;-88
2023/09/04 11:51:50;;;;;;;0.35;0.35;;;27.70;60.90;;;;;;6336276;22;20199;-86
2023/09/04 11:54:33;;;;;;;0.50;0.40;;;27.80;61.00;;;;;;6337940;22;20160;-87
2023/09/04 11:57:09;;;;;;;0.40;0.40;;;27.80;60.80;;;;;;6336020;22;20256;-89
2023/09/04 11:59:41;;;;;;;0.50;0.50;;;27.70;60.30;;;;;;6338738;22;20187;-87
2023/09/04 12:02:09;;;;;;;0.25;0.25;;;27.70;60.50;;;;;;6336475;22;20191;-87
2023/09/04 12:04:38;;;;;;;0.20;0.20;;;27.80;61.10;;;;;;6337736;22;20240;-87
2023/09/04 12:07:24;;;;;;;0.43;0.32;;;27.80;61.30;;;;;;6337553;22;20458;-87
2023/09/04 12:16:16;;;;;;;0.30;0.30;;;27.80;60.70;;;;;;6285748;22;20215;-91
2023/09/04 12:19:21;;;;;;;0.75;0.68;;;27.70;60.50;;;;;;6302196;22;20234;-90
2023/09/04 12:21:50;;;;;;;0.22;0.22;;;27.70;61.30;;;;;;6308601;22;20485;-94
2023/09/04 12:24:22;;;;;;;0.45;0.30;;;27.80;61.60;;;;;;6307968;22;20214;-93
2023/09/04 12:26:56;;;;;;;0.20;0.20;;;27.80;62.60;;;;;;6308168;22;20164;-93
2023/09/04 12:29:24;;;;;;;0.47;0.38;;;27.80;60.80;;;;;;6309254;22;20216;-94
2023/09/04 12:31:53;;;;;;;0.52;0.52;;;27.80;61.20;;;;;;6307554;22;20245;-93
2023/09/04 12:34:27;;;;;;;0.32;0.32;;;27.80;61.20;;;;;;6308623;22;20619;-92
2023/09/04 12:36:58;;;;;;;0.25;0.25;;;27.80;60.90;;;;;;6307813;22;20175;-93
2023/09/04 12:39:30;;;;;;;0.70;0.38;;;27.80;60.60;;;;;;6308225;22;20161;-94
2023/09/04 12:42:01;;;;;;;0.20;0.20;;;27.80;60.70;;;;;;6307158;22;20184;-88
2023/09/04 12:44:31;;;;;;;0.30;0.30;;;27.80;60.90;;;;;;6309274;22;20591;-93
2023/09/04 12:47:00;;;;;;;1.30;0.60;;;27.80;60.50;;;;;;6307954;22;20165;-94
2023/09/04 12:49:31;;;;;;;0.30;0.30;;;27.80;60.90;;;;;;6310164;22;20165;-93
2023/09/04 12:52:01;;;;;;;1.13;1.08;;;27.80;60.90;;;;;;6306914;22;20195;-93
2023/09/04 12:54:32;;;;;;;0.40;0.40;;;27.80;60.70;;;;;;6309451;22;20191;-93
2023/09/04 12:57:00;;;;;;;0.20;0.20;;;27.80;60.70;;;;;;6307676;22;20504;-93
2023/09/04 12:59:29;;;;;;;1.23;0.50;;;27.80;60.80;;;;;;6310332;22;20172;-93
2023/09/04 13:01:59;;;;;;;1.25;0.28;;;27.80;60.80;;;;;;6308117;22;20169;-92
2023/09/04 13:04:29;;;;;;;5.07;1.00;;;27.80;60.70;;;;;;6309029;22;20172;-94
2023/09/04 13:06:58;;;;;;;0.28;0.28;;;27.70;60.20;;;;;;6307321;22;20201;-91
2023/09/04 13:09:31;;;;;;;0.38;0.38;;;27.60;59.90;;;;;;6312871;22;20161;-94
2023/09/04 13:12:00;;;;;;;0.40;0.30;;;27.70;60.00;;;;;;6308003;22;20196;-94
2023/09/04 13:14:29;;;;;;;0.50;0.28;;;27.70;60.80;;;;;;6308797;22;20169;-91
2023/09/04 13:17:01;;;;;;;0.30;0.30;;;27.60;60.10;;;;;;6310239;22;20169;-90
2023/09/04 13:19:30;;;;;;;0.20;0.20;;;27.70;60.30;;;;;;6311013;22;20219;-94
2023/09/04 13:22:00;;;;;;;0.60;0.60;;;27.60;59.90;;;;;;6314908;22;20161;-93
2023/09/04 13:24:29;;;;;;;0.22;0.22;;;27.60;60.40;;;;;;6311196;22;20165;-92
2023/09/04 13:27:09;;;;;;;0.30;0.30;;;27.50;61.10;;;;;;6313397;22;20173;-94
2023/09/04 13:29:40;;;;;;;0.40;0.40;;;27.50;61.40;;;;;;6313582;22;20213;-95
2023/09/04 13:32:11;;;;;;;0.47;0.35;;;27.50;61.60;;;;;;6310058;22;20743;-87
2023/09/04 13:34:39;;;;;;;0.45;0.45;;;27.50;61.60;;;;;;6306814;22;20590;-84
2023/09/04 13:37:08;;;;;;;0.45;0.45;;;27.40;62.40;;;;;;6306052;22;20630;-85
2023/09/04 13:39:38;;;;;;;0.68;0.68;;;27.40;61.60;;;;;;6306355;22;20248;-88
2023/09/04 13:42:08;;;;;;;0.47;0.45;;;27.40;61.60;;;;;;6303942;22;20192;-87
2023/09/04 13:44:37;;;;;;;0.30;0.30;;;27.40;61.60;;;;;;6277051;22;20157;-85
2023/09/04 13:47:25;;;;;;;0.52;0.52;;;27.60;61.50;;;;;;6303203;22;20469;-90
2023/09/04 13:50:00;;;;;;;0.28;0.28;;;27.60;61.50;;;;;;6307325;22;20196;-87
2023/09/04 13:52:29;;;;;;;0.30;0.25;;;27.40;61.10;;;;;;6308600;22;20242;-87
2023/09/04 13:55:07;;;;;;;0.30;0.30;;;27.40;61.50;;;;;;6308817;22;20248;-91
2023/09/04 13:57:41;;;;;;;1.55;0.82;;;27.30;61.40;;;;;;6308170;22;20161;-89
2023/09/04 14:00:30;;;;;;;0.40;0.40;;;27.30;61.90;;;;;;6308914;22;20599;-88
2023/09/04 14:03:11;;;;;;;1.48;0.63;;;27.20;62.20;;;;;;6307239;22;20172;-94
2023/09/04 14:05:49;;;;;;;0.85;0.85;;;27.20;62.30;;;;;;6308869;22;20185;-91
2023/09/04 14:08:26;;;;;;;0.40;0.30;;;27.20;62.30;;;;;;6307036;22;20179;-89
2023/09/04 14:11:09;;;;;;;0.65;0.45;;;27.20;62.30;;;;;;6307309;22;20188;-88
2023/09/04 14:13:39;;;;;;;0.40;0.40;;;27.10;62.70;;;;;;6308934;22;20252;-87
2023/09/04 14:16:15;;;;;;;1.35;0.60;;;27.10;62.80;;;;;;6305960;22;20280;-89
2023/09/04 14:18:47;;;;;;;1.20;0.73;;;27.00;62.90;;;;;;6305643;22;20514;-90
2023/09/04 14:21:33;;;;;;;0.80;0.35;;;27.00;63.00;;;;;;6304980;22;20283;-90
2023/09/04 14:24:02;;;;;;;0.28;0.28;;;27.00;63.50;;;;;;6304821;22;20491;-88
2023/09/04 14:26:37;;;;;;;1.08;0.75;;;27.00;63.50;;;;;;6306573;22;20172;-90
2023/09/04 14:29:11;;;;;;;0.22;0.22;;;26.90;63.40;;;;;;6306967;22;20197;-89
2023/09/04 14:31:42;;;;;;;0.75;0.55;;;26.80;63.80;;;;;;6306527;22;20457;-87
2023/09/04 14:34:13;;;;;;;0.52;0.52;;;26.80;64.10;;;;;;6307482;22;20603;-89
2023/09/04 14:36:42;;;;;;;0.30;0.30;;;26.70;64.30;;;;;;6307826;22;20157;-89
2023/09/04 14:39:32;;;;;;;0.90;0.77;;;26.70;63.80;;;;;;6307494;22;20240;-88
2023/09/04 14:42:02;;;;;;;0.43;0.43;;;26.70;64.30;;;;;;6306566;22;20208;-90
2023/09/04 14:44:35;;;;;;;0.30;0.30;;;26.60;64.10;;;;;;6307591;22;20573;-91
2023/09/04 14:47:30;;;;;;;0.82;0.82;;;26.50;64.80;;;;;;6307238;22;20166;-93
2023/09/04 14:50:04;;;;;;;0.65;0.60;;;26.40;64.10;;;;;;6308605;22;20188;-90
2023/09/04 14:52:42;;;;;;;1.10;0.95;;;26.40;64.10;;;;;;6305007;22;20189;-91
2023/09/04 14:55:11;;;;;;;0.63;0.57;;;26.30;64.40;;;;;;6306351;22;20504;-88
2023/09/04 14:57:44;;;;;;;0.60;0.60;;;26.20;64.20;;;;;;6305391;22;20162;-89
2023/09/04 15:07:07;;;;;;;0.98;0.90;;;25.90;65.20;;;;;;6299797;22;20189;-86
2023/09/04 15:10:05;;;;;;;1.55;1.05;;;25.90;65.40;;;;;;6307783;22;20158;-91
2023/09/04 15:13:03;;;;;;;0.32;0.32;;;25.80;65.90;;;;;;6286637;22;20268;-94
2023/09/04 15:15:46;;;;;;;0.75;0.50;;;25.80;65.90;;;;;;6309989;22;20199;-96
2023/09/04 15:18:17;;;;;;;0.50;0.50;;;25.70;65.90;;;;;;6318465;22;20211;-93
2023/09/04 15:20:51;;;;;;;0.68;0.68;;;25.60;66.00;;;;;;6340963;22;20528;-93
2023/09/04 15:23:38;;;;;;;0.40;0.40;;;25.50;66.10;;;;;;6344821;22;20192;-91
2023/09/04 15:26:30;;;;;;;;;;;;;;;;;;;;;
2023/09/04 15:29:07;;;;;;;0.20;0.20;;;25.50;66.60;;;;;;6339055;22;20160;-94
2023/09/04 15:31:45;;;;;;;0.60;0.40;;;25.40;66.50;;;;;;6342999;22;20213;-93
2023/09/04 15:34:37;;;;;;;0.40;0.40;;;25.40;66.60;;;;;;6349036;22;20585;-93
2023/09/04 15:37:16;;;;;;;0.50;0.50;;;25.40;66.90;;;;;;6346246;22;20535;-92
2023/09/04 15:39:49;;;;;;;0.85;0.70;;;25.40;67.00;;;;;;6342538;22;20227;-95
2023/09/04 15:42:25;;;;;;;2.30;1.10;;;25.30;66.70;;;;;;6343275;22;20224;-92
2023/09/04 15:44:57;;;;;;;0.38;0.38;;;25.30;67.00;;;;;;6344417;22;20227;-95
2023/09/04 15:47:42;;;;;;;1.30;0.70;;;25.30;67.20;;;;;;6344294;22;20463;-93
2023/09/04 15:50:27;;;;;;;0.60;0.60;;;25.30;67.10;;;;;;6343590;22;20167;-95
2023/09/04 15:53:03;;;;;;;1.35;0.85;;;25.30;67.00;;;;;;6340992;22;20698;-94
2023/09/04 15:55:36;;;;;;;0.30;0.30;;;25.20;67.10;;;;;;6336833;22;20164;-94
2023/09/04 15:58:25;;;;;;;0.40;0.40;;;25.20;67.20;;;;;;6342636;22;20620;-95
2023/09/04 16:01:00;;;;;;;1.05;0.75;;;25.10;67.40;;;;;;6339904;22;20160;-91
2023/09/04 16:03:29;;;;;;;2.78;0.93;;;25.10;67.30;;;;;;6342050;22;20184;-89
2023/09/04 16:19:02;;;;;;;0.90;0.65;;;24.90;67.50;;;;;;6317837;22;20657;-91
2023/09/04 16:36:41;;;;;;;1.58;0.73;;;24.80;68.70;;;;;;6292971;22;20201;-87
2023/09/04 16:39:37;;;;;;;0.30;0.30;;;24.80;68.60;;;;;;6182368;23;20176;-88
2023/09/04 16:42:32;;;;;;;0.55;0.55;;;24.70;68.40;;;;;;6183021;23;21038;-88
2023/09/04 16:49:08;;;;;;;0.35;0.35;;;24.70;68.60;;;;;;6164811;23;20163;-88
2023/09/04 16:51:45;;;;;;;0.82;0.80;;;24.60;68.80;;;;;;6180688;23;20179;-88
2023/09/04 16:54:25;;;;;;;1.00;0.65;;;24.60;69.20;;;;;;6185108;23;20199;-90
2023/09/04 16:56:56;;;;;;;0.85;0.60;;;24.60;69.10;;;;;;6185328;23;20172;-89
2023/09/04 16:59:26;;;;;;;0.45;0.45;;;24.60;69.10;;;;;;6183867;23;20601;-93
2023/09/04 17:02:03;;;;;;;1.05;0.57;;;24.50;69.20;;;;;;6186512;23;20275;-92
2023/09/04 17:04:41;;;;;;;0.40;0.40;;;24.50;69.40;;;;;;6188505;23;20367;-91
2023/09/04 17:07:11;;;;;;;0.90;0.60;;;24.40;69.50;;;;;;6186995;23;20624;-91
2023/09/04 17:09:40;;;;;;;0.40;0.40;;;24.50;69.40;;;;;;6188247;23;20298;-93
2023/09/04 17:12:09;;;;;;;0.30;0.30;;;24.40;69.20;;;;;;6185617;23;20168;-89
2023/09/04 17:14:37;;;;;;;0.38;0.38;;;24.40;69.30;;;;;;6303048;22;20165;-93
2023/09/04 17:17:12;;;;;;;0.50;0.50;;;24.30;69.60;;;;;;6308881;22;20219;-90
2023/09/04 17:19:46;;;;;;;0.75;0.52;;;24.30;69.80;;;;;;6309353;22;20161;-93
2023/09/04 17:22:16;;;;;;;0.60;0.50;;;24.30;70.20;;;;;;6309995;22;20172;-90
2023/09/04 17:24:49;;;;;;;0.40;0.40;;;24.30;69.80;;;;;;6309784;22;20153;-92
2023/09/04 17:27:27;;;;;;;0.47;0.47;;;24.30;69.70;;;;;;6308912;22;20165;-92
2023/09/04 17:30:05;;;;;;;0.60;0.60;;;24.30;69.90;;;;;;6308933;22;20165;-91
2023/09/04 17:32:39;;;;;;;0.25;0.25;;;24.20;70.00;;;;;;6308811;22;20556;-92